Time;durP1;ratioP1;P1;durP2;ratioP2;P2;SDS_P1;SDS_P2;PMS_P1;PMS_P2;Temp;Humidity;BMP_temperature;BMP_pressure;BME280_temperature;BME280_humidity;BME280_pressure;Samples;Min_cycle;Max_cycle;Signal;HPM_P1;HPM_P2
2021/12/27 00:00:14;;;;;;;169.50;35.42;;;5.30;99.90;;;;;;5036517;28;20185;-81
2021/12/27 00:02:40;;;;;;;82.72;27.65;;;5.50;99.90;;;;;;5040778;28;20553;-80
2021/12/27 00:05:06;;;;;;;72.63;27.83;;;5.50;99.90;;;;;;5020445;28;20190;-80
2021/12/27 00:07:33;;;;;;;328.13;49.73;;;5.60;99.90;;;;;;5022568;28;20455;-81
2021/12/27 00:10:00;;;;;;;74.40;30.00;;;5.60;99.90;;;;;;5021466;28;20432;-80
2021/12/27 00:12:25;;;;;;;171.95;39.30;;;5.50;99.90;;;;;;5036933;28;20309;-85
2021/12/27 00:14:51;;;;;;;97.50;30.37;;;5.40;99.90;;;;;;5031942;28;20225;-85
2021/12/27 00:17:17;;;;;;;144.93;33.80;;;5.40;99.90;;;;;;5035226;28;20181;-85
2021/12/27 00:19:42;;;;;;;95.43;31.23;;;5.40;99.90;;;;;;5033597;28;20247;-84
2021/12/27 00:22:08;;;;;;;87.57;29.80;;;5.40;99.90;;;;;;5017431;28;20181;-84
2021/12/27 00:24:33;;;;;;;56.97;27.67;;;5.50;99.90;;;;;;5034439;28;20201;-85
2021/12/27 00:26:59;;;;;;;65.30;27.60;;;5.50;99.90;;;;;;5017452;28;20190;-85
2021/12/27 00:29:25;;;;;;;93.43;30.40;;;5.50;99.90;;;;;;5019640;28;20221;-84
2021/12/27 00:31:50;;;;;;;180.07;35.73;;;5.40;99.90;;;;;;5017594;28;20186;-84
2021/12/27 00:34:16;;;;;;;389.33;50.80;;;5.30;99.90;;;;;;5030428;28;20220;-83
2021/12/27 00:36:42;;;;;;;242.53;39.93;;;;;;;;;;5024912;28;20177;-84
2021/12/27 00:39:07;;;;;;;261.30;42.30;;;5.30;99.90;;;;;;5039220;28;20189;-83
2021/12/27 00:41:33;;;;;;;193.63;33.80;;;5.30;99.90;;;;;;5037991;28;21215;-84
2021/12/27 00:43:58;;;;;;;362.17;46.37;;;5.30;99.90;;;;;;5021262;28;20196;-84
2021/12/27 00:46:24;;;;;;;442.43;51.13;;;5.20;99.90;;;;;;5039835;28;20186;-85
2021/12/27 00:48:49;;;;;;;297.40;45.00;;;5.20;99.90;;;;;;5039122;28;20206;-84
2021/12/27 00:51:15;;;;;;;336.50;46.47;;;5.30;99.90;;;;;;5016755;28;20189;-84
2021/12/27 00:53:41;;;;;;;183.53;38.00;;;5.30;99.90;;;;;;5035039;28;20706;-85
2021/12/27 00:56:06;;;;;;;316.73;53.47;;;5.30;99.90;;;;;;5039508;28;20256;-84
2021/12/27 00:58:32;;;;;;;144.40;34.03;;;5.40;99.90;;;;;;5018860;28;20166;-85
2021/12/27 01:00:57;;;;;;;130.33;33.57;;;5.40;99.90;;;;;;5034573;28;20184;-84
2021/12/27 01:03:23;;;;;;;137.87;31.50;;;5.40;99.90;;;;;;5034130;28;20205;-84
2021/12/27 01:05:49;;;;;;;78.60;30.43;;;5.40;99.90;;;;;;5035868;28;20182;-83
2021/12/27 01:08:14;;;;;;;157.30;33.93;;;5.30;99.90;;;;;;5036366;28;20186;-84
2021/12/27 01:13:40;;;;;;;425.50;51.70;;;5.30;99.90;;;;;;5035891;28;20579;-85
2021/12/27 01:18:35;;;;;;;177.20;34.40;;;5.10;99.90;;;;;;5036163;28;20630;-84
2021/12/27 01:21:01;;;;;;;365.23;52.05;;;5.20;99.90;;;;;;5032196;28;20184;-85
2021/12/27 01:23:27;;;;;;;470.27;57.85;;;5.20;99.90;;;;;;5036175;28;20275;-84
2021/12/27 01:25:53;;;;;;;500.27;60.90;;;5.20;99.90;;;;;;5018636;28;20249;-84
2021/12/27 01:28:19;;;;;;;493.33;57.23;;;5.20;99.90;;;;;;5032047;28;20217;-84
2021/12/27 01:30:49;;;;;;;265.52;43.05;;;5.20;99.90;;;;;;5035847;28;20180;-83
2021/12/27 01:33:20;;;;;;;323.67;52.75;;;5.20;99.90;;;;;;5033860;28;20208;-83
2021/12/27 01:35:47;;;;;;;348.85;50.13;;;5.30;99.90;;;;;;5013556;28;20522;-85
2021/12/27 01:38:14;;;;;;;358.63;50.53;;;5.40;99.90;;;;;;5016898;28;20178;-83
2021/12/27 01:40:44;;;;;;;449.05;53.90;;;5.20;99.90;;;;;;5019765;28;20289;-84
2021/12/27 01:43:14;;;;;;;612.53;78.90;;;5.20;99.90;;;;;;5018082;28;20207;-83
2021/12/27 01:45:45;;;;;;;361.23;53.65;;;5.10;99.90;;;;;;5015349;28;20209;-84
2021/12/27 01:48:12;;;;;;;566.08;70.47;;;5.10;99.90;;;;;;5022311;28;20716;-83
2021/12/27 01:50:42;;;;;;;446.73;54.92;;;5.20;99.90;;;;;;5022681;28;20181;-84
2021/12/27 01:53:10;;;;;;;508.05;58.05;;;5.20;99.90;;;;;;5041107;28;20248;-84
2021/12/27 01:55:36;;;;;;;236.85;35.92;;;5.30;99.90;;;;;;5020883;28;20170;-84
2021/12/27 01:58:02;;;;;;;170.07;32.78;;;5.30;99.90;;;;;;5025586;28;20470;-84
2021/12/27 02:00:28;;;;;;;46.28;22.85;;;5.20;99.90;;;;;;5019450;28;20174;-84
2021/12/27 02:02:53;;;;;;;48.33;21.17;;;5.20;99.90;;;;;;5035667;28;20586;-82
2021/12/27 02:05:19;;;;;;;33.40;16.90;;;5.20;99.90;;;;;;5039013;28;20216;-82
2021/12/27 02:07:44;;;;;;;31.53;16.60;;;5.20;99.90;;;;;;5023141;28;20186;-84
2021/12/27 02:10:11;;;;;;;29.33;16.53;;;5.30;99.90;;;;;;5036455;28;20182;-84
2021/12/27 02:12:37;;;;;;;29.38;16.05;;;5.60;99.90;;;;;;5035359;28;20178;-84
2021/12/27 02:15:08;;;;;;;183.70;27.87;;;5.60;99.90;;;;;;5037430;28;20240;-82
2021/12/27 02:17:34;;;;;;;508.63;52.95;;;5.60;99.90;;;;;;5017290;28;20433;-83
2021/12/27 02:20:00;;;;;;;297.65;39.35;;;5.40;99.90;;;;;;5036181;28;20185;-84
2021/12/27 02:22:28;;;;;;;370.07;45.87;;;5.30;99.90;;;;;;5040395;28;20295;-83
2021/12/27 02:24:54;;;;;;;364.95;45.47;;;5.20;99.90;;;;;;5020299;28;20292;-83
2021/12/27 02:27:19;;;;;;;592.60;71.37;;;5.20;99.90;;;;;;5038117;28;20173;-83
2021/12/27 02:29:45;;;;;;;516.47;58.20;;;5.10;99.90;;;;;;5018804;28;20193;-83
2021/12/27 02:32:10;;;;;;;424.63;56.17;;;5.20;99.90;;;;;;5020208;28;20182;-84
2021/12/27 02:34:36;;;;;;;416.27;56.67;;;5.10;99.90;;;;;;5026731;28;20225;-84
2021/12/27 02:37:02;;;;;;;348.30;49.23;;;5.20;99.90;;;;;;5027867;28;20693;-83
2021/12/27 02:39:29;;;;;;;372.37;48.87;;;5.40;99.90;;;;;;5036281;28;20265;-85
2021/12/27 02:41:55;;;;;;;586.17;62.05;;;5.40;99.90;;;;;;5034481;28;20472;-85
2021/12/27 02:44:21;;;;;;;590.53;69.38;;;5.30;99.90;;;;;;5018480;28;20197;-85
2021/12/27 02:46:46;;;;;;;513.17;61.70;;;5.30;99.90;;;;;;5020170;28;20336;-85
2021/12/27 02:49:12;;;;;;;427.10;53.73;;;5.30;99.90;;;;;;5038392;28;20295;-83
2021/12/27 02:51:37;;;;;;;306.60;37.37;;;5.40;99.90;;;;;;5021664;28;20178;-85
2021/12/27 02:54:03;;;;;;;168.97;30.90;;;5.40;99.90;;;;;;5018629;28;20218;-83
2021/12/27 02:56:29;;;;;;;307.37;45.23;;;5.50;99.90;;;;;;5020894;28;20184;-83
2021/12/27 02:58:55;;;;;;;316.17;45.08;;;5.60;99.90;;;;;;5020241;28;20224;-85
2021/12/27 03:01:23;;;;;;;43.33;20.00;;;5.70;99.90;;;;;;5021067;28;20178;-82
2021/12/27 03:03:49;;;;;;;55.33;22.20;;;5.70;99.90;;;;;;5039172;28;20232;-85
2021/12/27 03:06:14;;;;;;;425.67;53.03;;;5.60;99.90;;;;;;5020803;28;20184;-83
2021/12/27 03:08:41;;;;;;;383.53;43.40;;;5.50;99.90;;;;;;5019512;28;20643;-84
2021/12/27 03:11:09;;;;;;;436.60;58.80;;;5.50;99.90;;;;;;5039031;28;20189;-86
2021/12/27 03:13:37;;;;;;;166.90;35.80;;;5.60;99.90;;;;;;5023611;28;20288;-85
2021/12/27 03:16:15;;;;;;;122.68;30.95;;;5.60;99.90;;;;;;5039792;28;20174;-85
2021/12/27 03:18:47;;;;;;;35.42;20.67;;;5.70;99.90;;;;;;5040331;28;20174;-86
2021/12/27 03:21:13;;;;;;;31.17;16.80;;;5.70;99.90;;;;;;5015189;28;20188;-85
2021/12/27 03:23:41;;;;;;;203.97;31.20;;;5.70;99.90;;;;;;5041287;28;20646;-85
2021/12/27 03:26:07;;;;;;;250.32;40.38;;;5.70;99.90;;;;;;5024028;28;20556;-85
2021/12/27 03:28:33;;;;;;;349.30;39.53;;;5.50;99.90;;;;;;5039600;28;20208;-84
2021/12/27 03:30:59;;;;;;;190.90;29.95;;;5.50;99.90;;;;;;5040230;28;20178;-86
2021/12/27 03:33:26;;;;;;;200.97;30.60;;;5.40;99.90;;;;;;5040279;28;20269;-86
2021/12/27 03:36:01;;;;;;;114.65;26.73;;;5.30;99.90;;;;;;5036823;28;20523;-85
2021/12/27 03:38:35;;;;;;;164.23;31.27;;;5.20;99.90;;;;;;5021408;28;20657;-85
2021/12/27 03:41:02;;;;;;;162.25;29.45;;;5.20;99.90;;;;;;5019198;28;20166;-85
2021/12/27 03:43:27;;;;;;;402.52;48.72;;;5.30;99.90;;;;;;5022683;28;20205;-85
2021/12/27 03:45:53;;;;;;;322.30;45.93;;;5.30;99.90;;;;;;5040888;28;20293;-85
2021/12/27 03:48:18;;;;;;;286.97;39.00;;;5.30;99.90;;;;;;5038065;28;20548;-84
2021/12/27 03:50:44;;;;;;;35.37;16.83;;;5.40;99.90;;;;;;5036892;28;20182;-85
2021/12/27 03:53:10;;;;;;;213.03;37.70;;;5.40;99.90;;;;;;5020504;28;20205;-85
2021/12/27 03:55:37;;;;;;;220.37;31.70;;;5.50;99.90;;;;;;5038324;28;20173;-85
2021/12/27 03:58:08;;;;;;;393.45;45.60;;;5.40;99.90;;;;;;5034293;28;20174;-85
2021/12/27 04:01:23;;;;;;;252.93;33.60;;;5.40;99.90;;;;;;5018272;28;20204;-84
2021/12/27 04:03:22;;;;;;;174.45;27.30;;;5.30;99.90;;;;;;5021552;28;20214;-85
2021/12/27 04:05:48;;;;;;;40.40;19.00;;;5.30;99.90;;;;;;5034894;28;20235;-86
2021/12/27 04:08:16;;;;;;;49.80;20.50;;;5.40;99.90;;;;;;5038831;28;20190;-86
2021/12/27 04:10:42;;;;;;;47.08;19.38;;;5.40;99.90;;;;;;5039036;28;20436;-86
2021/12/27 04:13:09;;;;;;;42.70;20.52;;;5.40;99.90;;;;;;5036863;28;20445;-86
2021/12/27 04:15:35;;;;;;;40.03;20.65;;;5.60;99.90;;;;;;5021442;28;20169;-86
2021/12/27 04:18:02;;;;;;;194.70;29.38;;;5.70;99.90;;;;;;5038947;28;20205;-86
2021/12/27 04:20:28;;;;;;;375.90;48.97;;;;;;;;;;5035126;28;20697;-86
2021/12/27 04:22:54;;;;;;;106.87;24.00;;;5.60;99.90;;;;;;5022186;28;20205;-86
2021/12/27 04:25:21;;;;;;;228.60;31.83;;;5.50;99.90;;;;;;5038604;28;20428;-86
2021/12/27 04:27:48;;;;;;;482.17;43.92;;;5.50;99.90;;;;;;5037306;28;20174;-86
2021/12/27 04:30:15;;;;;;;435.23;44.25;;;5.40;99.90;;;;;;5034282;28;20201;-86
2021/12/27 04:32:41;;;;;;;30.23;15.48;;;5.40;99.90;;;;;;5038539;28;20189;-86
2021/12/27 04:35:08;;;;;;;35.87;19.67;;;5.40;99.90;;;;;;5020192;28;20196;-86
2021/12/27 04:37:33;;;;;;;36.72;19.05;;;5.50;99.90;;;;;;5021193;28;20435;-86
2021/12/27 04:40:00;;;;;;;43.83;22.87;;;5.60;99.90;;;;;;5018646;28;20182;-85
2021/12/27 04:42:29;;;;;;;386.95;47.25;;;5.60;99.90;;;;;;5037255;28;20169;-87
2021/12/27 04:44:55;;;;;;;45.35;20.45;;;5.60;99.90;;;;;;5016636;28;20194;-86
2021/12/27 04:47:20;;;;;;;41.00;19.17;;;5.50;99.90;;;;;;5038190;28;20184;-86
2021/12/27 04:49:46;;;;;;;36.87;16.90;;;5.50;99.90;;;;;;5035414;28;20177;-86
2021/12/27 04:52:12;;;;;;;37.83;18.93;;;5.70;99.90;;;;;;5014765;28;20667;-85
2021/12/27 04:54:38;;;;;;;35.30;18.40;;;5.90;99.90;;;;;;5036451;28;20257;-85
2021/12/27 04:57:04;;;;;;;32.22;17.13;;;6.00;99.90;;;;;;5037283;28;20436;-86
2021/12/27 04:59:30;;;;;;;23.07;13.40;;;6.00;99.90;;;;;;5016793;28;20219;-86
2021/12/27 05:01:55;;;;;;;289.73;36.13;;;6.10;99.90;;;;;;5034540;28;20624;-86
2021/12/27 05:04:21;;;;;;;32.50;17.50;;;6.10;99.90;;;;;;5015144;28;20213;-86
2021/12/27 05:06:47;;;;;;;29.57;13.03;;;6.10;99.90;;;;;;5034068;28;20194;-86
2021/12/27 05:09:12;;;;;;;21.00;10.23;;;6.10;99.90;;;;;;5034272;28;20254;-85
2021/12/27 05:11:39;;;;;;;19.30;11.23;;;6.20;99.90;;;;;;5035357;28;20205;-86
2021/12/27 05:14:05;;;;;;;20.95;11.90;;;6.30;99.90;;;;;;5021584;28;20296;-86
2021/12/27 05:16:31;;;;;;;24.35;12.02;;;6.30;99.90;;;;;;5006835;28;20275;-85
2021/12/27 05:18:57;;;;;;;25.83;11.33;;;6.30;99.90;;;;;;5033983;28;20181;-85
2021/12/27 05:21:22;;;;;;;593.17;71.43;;;6.40;99.90;;;;;;5031675;28;20174;-85
2021/12/27 05:23:48;;;;;;;714.50;81.63;;;6.10;99.90;;;;;;5020771;28;20201;-85
2021/12/27 05:26:14;;;;;;;622.77;66.63;;;5.70;99.90;;;;;;5013489;28;20428;-85
2021/12/27 05:28:39;;;;;;;499.37;52.90;;;5.60;99.90;;;;;;5015918;28;20182;-85
2021/12/27 05:31:05;;;;;;;339.07;43.03;;;5.50;99.90;;;;;;5015915;28;20181;-85
2021/12/27 05:33:31;;;;;;;61.77;23.50;;;5.50;99.90;;;;;;5025600;28;21195;-85
2021/12/27 05:35:56;;;;;;;218.67;36.10;;;5.60;99.90;;;;;;5032267;28;20197;-85
2021/12/27 05:38:22;;;;;;;142.07;30.10;;;5.80;99.90;;;;;;5025367;28;20272;-85
2021/12/27 05:40:47;;;;;;;56.63;22.67;;;5.90;99.90;;;;;;5011010;28;20650;-84
2021/12/27 05:43:13;;;;;;;42.33;20.43;;;5.90;99.90;;;;;;5009030;28;20210;-84
2021/12/27 05:45:39;;;;;;;37.37;18.83;;;6.00;99.90;;;;;;5014701;28;20236;-83
2021/12/27 05:48:06;;;;;;;40.97;20.77;;;6.00;99.90;;;;;;5030402;28;20712;-83
2021/12/27 05:50:32;;;;;;;32.70;17.20;;;6.00;99.90;;;;;;5012663;28;20190;-84
2021/12/27 05:52:58;;;;;;;25.83;15.77;;;6.00;99.90;;;;;;5030875;28;20328;-84
2021/12/27 05:55:23;;;;;;;28.90;15.83;;;6.10;99.90;;;;;;5029648;28;20217;-84
2021/12/27 05:57:50;;;;;;;35.43;16.23;;;6.10;99.90;;;;;;5031649;28;20768;-85
2021/12/27 06:00:16;;;;;;;29.77;16.17;;;6.20;99.90;;;;;;5008602;28;20186;-85
2021/12/27 06:02:43;;;;;;;28.37;17.10;;;6.30;99.90;;;;;;5025508;28;20240;-85
2021/12/27 06:05:09;;;;;;;25.83;14.93;;;6.30;99.90;;;;;;5010569;28;20432;-85
2021/12/27 06:07:35;;;;;;;22.35;11.77;;;6.30;99.90;;;;;;5028322;28;20182;-85
2021/12/27 06:10:01;;;;;;;22.63;12.77;;;6.30;99.90;;;;;;5003466;28;20192;-85
2021/12/27 06:12:27;;;;;;;27.93;13.83;;;6.30;99.90;;;;;;5027489;28;20186;-85
2021/12/27 06:14:52;;;;;;;22.87;12.03;;;6.50;99.90;;;;;;5027814;23;23808;-81
2021/12/27 06:17:18;;;;;;;22.53;14.63;;;6.70;99.90;;;;;;5039621;28;20231;-82
2021/12/27 06:19:46;;;;;;;30.27;15.53;;;6.70;99.90;;;;;;5034613;28;20649;-81
2021/12/27 06:22:12;;;;;;;22.38;12.85;;;6.60;99.90;;;;;;5037335;28;20236;-83
2021/12/27 06:24:37;;;;;;;26.23;11.07;;;6.60;99.90;;;;;;5042369;28;20198;-81
2021/12/27 06:27:03;;;;;;;28.87;12.63;;;6.60;99.90;;;;;;5040176;28;20185;-83
2021/12/27 06:29:29;;;;;;;21.77;10.67;;;6.50;99.90;;;;;;5025589;28;20550;-83
2021/12/27 06:31:54;;;;;;;20.07;9.27;;;6.40;99.90;;;;;;5038425;28;20433;-82
2021/12/27 06:34:20;;;;;;;10.90;6.50;;;6.40;99.90;;;;;;5039212;28;20223;-80
2021/12/27 06:36:46;;;;;;;19.37;9.50;;;;;;;;;;5047649;28;20169;-80
2021/12/27 06:39:12;;;;;;;18.20;9.85;;;6.30;99.90;;;;;;5045659;28;20216;-79
2021/12/27 06:41:37;;;;;;;14.93;7.43;;;6.30;99.90;;;;;;5046512;28;20656;-81
2021/12/27 06:44:03;;;;;;;17.03;9.10;;;4.50;99.90;;;;;;5043649;28;20210;-80
2021/12/27 06:46:29;;;;;;;11.63;6.63;;;6.30;99.90;;;;;;5027439;28;20223;-81
2021/12/27 06:48:55;;;;;;;11.10;6.03;;;6.40;99.90;;;;;;5047066;28;20428;-79
2021/12/27 06:51:21;;;;;;;11.47;6.90;;;6.40;99.90;;;;;;5030442;28;20186;-79
2021/12/27 06:53:46;;;;;;;8.97;5.10;;;6.40;99.90;;;;;;5027321;28;20248;-79
2021/12/27 06:56:12;;;;;;;10.97;5.40;;;6.40;99.90;;;;;;5042050;28;20444;-83
2021/12/27 06:58:38;;;;;;;7.70;5.05;;;6.50;99.90;;;;;;5032261;28;20188;-80
2021/12/27 07:01:04;;;;;;;9.37;5.70;;;6.50;99.90;;;;;;5041027;28;20185;-82
2021/12/27 07:03:30;;;;;;;13.60;5.50;;;6.40;99.90;;;;;;5043218;28;20529;-81
2021/12/27 07:05:56;;;;;;;7.28;4.47;;;6.40;99.90;;;;;;5036058;28;20508;-81
2021/12/27 07:08:22;;;;;;;8.30;5.77;;;;;;;;;;5026534;28;20189;-82
2021/12/27 07:10:48;;;;;;;13.70;6.88;;;6.40;99.90;;;;;;5039952;28;20269;-80
2021/12/27 07:13:14;;;;;;;11.50;5.80;;;6.40;99.90;;;;;;5045077;28;20284;-84
2021/12/27 07:15:41;;;;;;;10.73;6.30;;;6.40;99.90;;;;;;5044535;28;20476;-81
2021/12/27 07:18:09;;;;;;;11.50;6.47;;;6.40;99.90;;;;;;5047274;28;20526;-79
2021/12/27 07:20:35;;;;;;;17.30;6.10;;;6.60;99.90;;;;;;5044858;28;20188;-81
2021/12/27 07:23:01;;;;;;;13.38;7.38;;;6.50;99.90;;;;;;5047263;28;20252;-81
2021/12/27 07:25:26;;;;;;;14.60;6.07;;;6.50;99.90;;;;;;5045730;28;20224;-82
2021/12/27 07:27:51;;;;;;;12.33;6.50;;;6.50;99.90;;;;;;5033752;28;20193;-80
2021/12/27 07:30:17;;;;;;;9.07;6.60;;;6.60;99.90;;;;;;5043886;28;20212;-82
2021/12/27 07:32:42;;;;;;;9.07;6.40;;;6.60;99.90;;;;;;5042190;28;20213;-79
2021/12/27 07:35:09;;;;;;;10.30;5.17;;;6.60;99.90;;;;;;5042407;28;20229;-81
2021/12/27 07:37:36;;;;;;;8.65;4.53;;;6.60;99.90;;;;;;5045561;28;20240;-81
2021/12/27 07:40:02;;;;;;;4.70;3.60;;;6.60;99.90;;;;;;5043714;28;20265;-81
2021/12/27 07:42:28;;;;;;;8.95;5.22;;;6.70;99.90;;;;;;5040966;28;20612;-80
2021/12/27 07:44:53;;;;;;;5.13;4.20;;;6.70;99.90;;;;;;5038449;28;20204;-81
2021/12/27 07:47:19;;;;;;;7.37;4.47;;;6.80;99.90;;;;;;5042483;28;20303;-82
2021/12/27 07:49:44;;;;;;;5.10;3.43;;;6.80;99.90;;;;;;5039895;28;21534;-82
2021/12/27 07:52:10;;;;;;;5.70;4.27;;;6.80;99.90;;;;;;5045425;28;20181;-82
2021/12/27 07:54:36;;;;;;;9.53;4.50;;;6.90;99.90;;;;;;5039612;28;20723;-82
2021/12/27 07:57:02;;;;;;;9.90;4.35;;;6.90;99.90;;;;;;5017909;28;20848;-82
2021/12/27 07:59:28;;;;;;;8.10;4.60;;;6.90;99.90;;;;;;5039964;28;20265;-81
2021/12/27 08:01:53;;;;;;;5.07;4.10;;;7.00;99.90;;;;;;5040144;28;20196;-81
2021/12/27 08:04:19;;;;;;;7.27;5.20;;;7.00;99.90;;;;;;5038267;28;20697;-81
2021/12/27 08:06:45;;;;;;;7.70;5.17;;;7.10;99.90;;;;;;5023407;28;20178;-81
2021/12/27 08:09:10;;;;;;;7.90;4.67;;;7.10;99.90;;;;;;5043834;28;20683;-82
2021/12/27 08:11:36;;;;;;;7.53;4.93;;;7.30;99.90;;;;;;5047153;28;20280;-83
2021/12/27 08:14:03;;;;;;;14.02;5.93;;;7.30;99.90;;;;;;5028549;28;20216;-82
2021/12/27 08:16:29;;;;;;;8.20;6.25;;;7.30;99.90;;;;;;5027916;28;20338;-80
2021/12/27 08:18:56;;;;;;;9.53;5.10;;;7.40;99.90;;;;;;5042021;28;20209;-78
2021/12/27 08:21:23;;;;;;;9.90;6.40;;;7.70;99.90;;;;;;5039882;28;20169;-82
2021/12/27 08:23:49;;;;;;;6.63;4.70;;;7.90;99.90;;;;;;5038441;28;20201;-82
2021/12/27 08:26:15;;;;;;;6.93;4.00;;;8.00;99.90;;;;;;5036719;28;20232;-83
2021/12/27 08:28:43;;;;;;;6.75;5.20;;;8.10;99.90;;;;;;5042119;28;21035;-82
2021/12/27 08:31:09;;;;;;;7.72;4.90;;;8.10;99.90;;;;;;5039766;28;20185;-81
2021/12/27 08:33:35;;;;;;;8.73;5.20;;;7.90;99.90;;;;;;5019990;28;20287;-81
2021/12/27 08:36:01;;;;;;;7.13;4.97;;;7.90;99.90;;;;;;5034877;28;20259;-83
2021/12/27 08:38:26;;;;;;;7.10;4.30;;;7.70;99.90;;;;;;5035261;28;20185;-81
2021/12/27 08:40:52;;;;;;;4.60;3.87;;;7.70;99.90;;;;;;5041852;28;20192;-82
2021/12/27 08:43:17;;;;;;;6.83;4.60;;;7.50;99.90;;;;;;5033522;28;20192;-81
2021/12/27 08:45:43;;;;;;;10.87;5.17;;;7.40;99.90;;;;;;5035404;28;20314;-82
2021/12/27 08:48:09;;;;;;;7.30;5.23;;;7.50;99.90;;;;;;5021140;28;20181;-79
2021/12/27 08:50:37;;;;;;;9.03;5.67;;;7.50;99.90;;;;;;5021524;28;20444;-81
2021/12/27 08:53:03;;;;;;;6.80;3.92;;;;;;;;;;5030769;28;20447;-81
2021/12/27 08:55:29;;;;;;;10.43;5.18;;;7.80;99.90;;;;;;5036615;28;20534;-81
2021/12/27 08:57:54;;;;;;;10.20;5.03;;;7.70;99.90;;;;;;5039349;28;20261;-80
2021/12/27 09:00:20;;;;;;;8.90;5.83;;;8.00;99.90;;;;;;5030955;28;20182;-80
2021/12/27 09:02:46;;;;;;;6.40;4.73;;;8.60;99.90;;;;;;5023995;28;20492;-80
2021/12/27 09:05:12;;;;;;;9.88;6.00;;;8.60;99.90;;;;;;5035455;28;20752;-80
2021/12/27 09:07:38;;;;;;;6.97;5.17;;;9.10;99.90;;;;;;5036125;28;20177;-80
2021/12/27 09:10:05;;;;;;;6.40;4.60;;;9.70;99.90;;;;;;5044732;28;20784;-81
2021/12/27 09:12:31;;;;;;;10.57;4.10;;;10.30;99.90;;;;;;5042703;28;20559;-81
2021/12/27 09:14:57;;;;;;;11.67;4.87;;;10.80;99.90;;;;;;5043431;28;20215;-80
2021/12/27 09:17:22;;;;;;;5.40;4.53;;;11.30;99.90;;;;;;5031386;28;20186;-81
2021/12/27 09:19:48;;;;;;;7.10;3.80;;;11.70;99.90;;;;;;5037176;28;20256;-80
2021/12/27 09:22:15;;;;;;;7.70;4.13;;;12.30;99.90;;;;;;5041776;28;20726;-80
2021/12/27 09:24:41;;;;;;;7.47;4.10;;;13.00;99.90;;;;;;5040199;28;20200;-79
2021/12/27 09:27:07;;;;;;;7.67;3.67;;;13.90;99.90;;;;;;5045341;28;20528;-79
2021/12/27 09:29:32;;;;;;;6.60;3.87;;;14.10;99.90;;;;;;5024874;28;20919;-79
2021/12/27 09:31:58;;;;;;;6.10;3.40;;;;;;;;;;5042251;28;20191;-79
2021/12/27 09:34:24;;;;;;;6.13;3.90;;;13.50;99.90;;;;;;5020916;28;20673;-78
2021/12/27 09:36:49;;;;;;;4.77;3.33;;;13.20;99.90;;;;;;5039194;28;20896;-79
2021/12/27 09:39:15;;;;;;;6.90;3.87;;;12.90;99.90;;;;;;5040790;28;20182;-81
2021/12/27 09:41:41;;;;;;;6.43;4.00;;;12.50;99.90;;;;;;5046166;28;20184;-80
2021/12/27 09:44:07;;;;;;;7.13;4.83;;;11.60;99.90;;;;;;5045595;28;20208;-80
2021/12/27 09:46:33;;;;;;;8.50;5.35;;;15.30;99.90;;;;;;5042549;28;20189;-80
2021/12/27 09:49:01;;;;;;;10.40;4.72;;;10.70;99.90;;;;;;5023228;28;20192;-78
2021/12/27 09:51:28;;;;;;;8.27;5.85;;;10.30;99.90;;;;;;5029757;28;20185;-80
2021/12/27 09:53:54;;;;;;;11.90;7.13;;;9.80;99.90;;;;;;5022827;28;20216;-79
2021/12/27 09:56:20;;;;;;;10.63;7.47;;;9.20;99.90;;;;;;5032299;28;20578;-81
2021/12/27 09:58:45;;;;;;;8.93;6.13;;;9.10;99.90;;;;;;5041207;28;20442;-82
2021/12/27 10:01:11;;;;;;;7.03;5.27;;;8.90;99.90;;;;;;5033451;28;20244;-81
2021/12/27 10:03:57;;;;;;;7.90;5.40;;;9.10;99.90;;;;;;5041801;28;20195;-81
2021/12/27 10:06:25;;;;;;;8.68;5.53;;;9.10;99.90;;;;;;5040753;28;20190;-79
2021/12/27 10:08:56;;;;;;;8.25;4.32;;;9.10;99.90;;;;;;5042549;28;20737;-79
2021/12/27 10:11:33;;;;;;;8.38;6.93;;;8.90;99.90;;;;;;5045621;28;20180;-80
2021/12/27 10:14:09;;;;;;;7.40;4.93;;;8.10;99.90;;;;;;5050323;28;20213;-79
2021/12/27 10:16:47;;;;;;;8.55;5.38;;;8.70;99.90;;;;;;5032325;28;20203;-78
2021/12/27 10:19:17;;;;;;;8.73;6.30;;;8.50;99.90;;;;;;5031944;28;20614;-79
2021/12/27 10:21:45;;;;;;;11.82;5.95;;;8.50;99.90;;;;;;5027159;28;20177;-79
2021/12/27 10:24:14;;;;;;;8.05;5.30;;;8.60;99.90;;;;;;5046296;28;20213;-80
2021/12/27 10:26:39;;;;;;;5.15;3.80;;;8.60;99.90;;;;;;5026353;28;20685;-79
2021/12/27 10:29:17;;;;;;;9.90;5.23;;;8.60;99.90;;;;;;5047646;28;20188;-79
2021/12/27 10:32:04;;;;;;;8.70;3.97;;;8.70;99.90;;;;;;5044867;28;20181;-80
2021/12/27 10:34:37;;;;;;;7.15;4.82;;;8.70;99.90;;;;;;5043815;28;20205;-80
2021/12/27 10:37:10;;;;;;;10.77;5.50;;;8.70;99.90;;;;;;5046217;28;20177;-80
2021/12/27 10:40:21;;;;;;;8.90;4.47;;;8.80;99.90;;;;;;5046598;28;20177;-80
2021/12/27 10:42:48;;;;;;;4.57;3.95;;;8.70;99.90;;;;;;4973758;28;20172;-79
2021/12/27 10:45:20;;;;;;;7.90;4.10;;;8.90;99.90;;;;;;5014645;28;20303;-79
2021/12/27 10:47:51;;;;;;;8.02;5.10;;;9.00;99.90;;;;;;5032368;28;20311;-80
2021/12/27 10:50:25;;;;;;;9.25;4.25;;;9.10;99.90;;;;;;5043577;28;20199;-80
2021/12/27 10:53:00;;;;;;;10.23;5.10;;;9.00;99.90;;;;;;5047305;28;20254;-80
2021/12/27 10:55:38;;;;;;;5.40;3.90;;;9.00;99.90;;;;;;5044724;28;20209;-79
2021/12/27 10:58:20;;;;;;;4.95;3.42;;;9.10;99.90;;;;;;5020488;28;20169;-79
2021/12/27 11:00:49;;;;;;;5.47;3.75;;;9.10;99.90;;;;;;5019560;28;20634;-80
2021/12/27 11:03:36;;;;;;;7.00;4.68;;;9.20;99.90;;;;;;5043993;28;20185;-79
2021/12/27 11:06:06;;;;;;;7.07;4.28;;;9.20;99.90;;;;;;5043010;28;20283;-78
2021/12/27 11:08:34;;;;;;;3.92;3.55;;;9.20;99.90;;;;;;5042896;28;20204;-79
2021/12/27 11:11:00;;;;;;;5.13;3.13;;;9.30;99.90;;;;;;5046062;28;20666;-80
2021/12/27 11:13:27;;;;;;;6.43;3.88;;;9.30;99.90;;;;;;5043117;28;20209;-79
2021/12/27 11:15:53;;;;;;;9.77;3.88;;;9.30;99.90;;;;;;5043664;28;20221;-80
2021/12/27 11:18:19;;;;;;;7.22;3.75;;;9.40;99.90;;;;;;5029716;28;20184;-80
2021/12/27 11:20:49;;;;;;;4.73;3.73;;;9.40;99.90;;;;;;5041341;28;20186;-80
2021/12/27 11:23:15;;;;;;;6.60;3.92;;;9.30;99.90;;;;;;5043477;28;20427;-80
2021/12/27 11:25:44;;;;;;;4.57;3.05;;;9.20;99.90;;;;;;5042357;28;20214;-80
2021/12/27 11:28:26;;;;;;;10.48;3.72;;;9.10;99.90;;;;;;5042697;28;20213;-80
2021/12/27 11:30:53;;;;;;;6.93;3.67;;;9.10;99.90;;;;;;5049108;28;20713;-81
2021/12/27 11:33:22;;;;;;;3.65;2.60;;;9.20;99.90;;;;;;5046186;28;20830;-80
2021/12/27 11:35:57;;;;;;;3.97;2.65;;;9.20;99.90;;;;;;5027568;28;20197;-80
2021/12/27 11:38:43;;;;;;;7.35;3.22;;;9.10;99.90;;;;;;5045084;28;20688;-81
2021/12/27 11:41:34;;;;;;;7.28;3.45;;;9.00;99.90;;;;;;5043386;28;20670;-80
2021/12/27 11:44:06;;;;;;;6.05;2.92;;;9.00;99.90;;;;;;5043016;28;20215;-80
2021/12/27 11:46:46;;;;;;;5.80;4.10;;;9.00;99.90;;;;;;5025641;28;20437;-81
2021/12/27 11:49:13;;;;;;;5.43;3.60;;;9.00;99.90;;;;;;5042115;28;20208;-80
2021/12/27 11:51:40;;;;;;;3.67;2.67;;;9.00;99.90;;;;;;5049345;28;20181;-80
2021/12/27 11:54:28;;;;;;;7.10;3.75;;;9.00;99.90;;;;;;5051958;28;20438;-82
2021/12/27 11:56:55;;;;;;;9.10;3.05;;;9.00;99.90;;;;;;5036561;28;20188;-80
2021/12/27 11:59:29;;;;;;;6.72;3.08;;;9.10;99.90;;;;;;5047471;28;20202;-80
2021/12/27 12:02:00;;;;;;;5.30;3.17;;;9.10;99.90;;;;;;5050388;28;20181;-80
2021/12/27 12:04:55;;;;;;;6.35;3.15;;;9.20;99.90;;;;;;5051421;28;20361;-81
2021/12/27 12:07:33;;;;;;;4.32;2.30;;;9.40;99.90;;;;;;5046044;28;20197;-82
2021/12/27 12:10:19;;;;;;;5.97;3.00;;;9.50;99.90;;;;;;5040168;28;20783;-82
2021/12/27 12:13:15;;;;;;;3.45;2.17;;;9.60;99.90;;;;;;5034634;28;20239;-82
2021/12/27 12:16:02;;;;;;;3.97;1.80;;;9.60;99.90;;;;;;5041992;23;20236;-80
2021/12/27 12:18:30;;;;;;;3.92;2.55;;;9.60;99.90;;;;;;5042864;28;20177;-79
2021/12/27 12:20:56;;;;;;;3.70;2.20;;;9.60;99.90;;;;;;5039817;28;20189;-79
2021/12/27 12:23:22;;;;;;;6.30;2.45;;;9.60;99.90;;;;;;5043225;28;20181;-79
2021/12/27 12:25:56;;;;;;;2.57;2.20;;;9.60;99.90;;;;;;5024118;28;20598;-79
2021/12/27 12:28:21;;;;;;;3.72;2.70;;;9.60;99.90;;;;;;5026365;28;20264;-79
2021/12/27 12:30:50;;;;;;;5.10;2.73;;;9.70;99.90;;;;;;5039200;28;20680;-78
2021/12/27 12:33:21;;;;;;;4.95;2.60;;;9.50;99.90;;;;;;5034687;28;20192;-79
2021/12/27 12:35:50;;;;;;;4.25;3.10;;;9.60;99.90;;;;;;5033554;28;20733;-79
2021/12/27 12:38:19;;;;;;;2.75;2.15;;;9.60;99.90;;;;;;5032739;28;20196;-79
2021/12/27 12:41:01;;;;;;;4.20;2.92;;;9.60;99.90;;;;;;5039694;28;20174;-80
2021/12/27 12:43:40;;;;;;;5.55;2.35;;;9.60;99.90;;;;;;5039148;28;20664;-79
2021/12/27 12:46:13;;;;;;;5.82;3.30;;;9.60;99.90;;;;;;5036682;28;20201;-79
2021/12/27 12:48:39;;;;;;;5.40;2.70;;;9.70;99.90;;;;;;5039037;28;20264;-80
2021/12/27 12:51:04;;;;;;;5.47;3.17;;;9.80;99.90;;;;;;5036010;28;20189;-80